CheckWX is a tool to help pilots better visualize weather data.  It is not intended as a substitute for an official pre-flight weather briefing.

20:11:09 UTC

KPHX METAR
Phoenix Sky Harbor International Airport
Phoenix, Arizona, USA
Current

20 mins ago

KPHX 231951Z 00000KT 10SM FEW100 BKN200 BKN250 28/01 A2983 RMK AO2 SLP086 T02780011
Observed
Apr-23 @ 19:51 UTC
Visibility
10 SM
Flight Rules
VFR
Cloud Levels
  • Few at 10,000' AGL
  • Broken at 20,000' AGL
  • Broken at 25,000' AGL
Temperature
28°C / 82°F
Dewpoint
C / 34°F
Humidity
17%
Altimeter
29.83" Hg
Pressure
1010.12 hPa
Previous

1 hour ago

KPHX 231851Z 00000KT 10SM FEW100 FEW150 BKN250 28/01 A2986 RMK AO2 SLP094 T02780011
Observed
Apr-23 @ 18:51 UTC
Visibility
10 SM
Flight Rules
VFR
Cloud Levels
  • Few at 10,000' AGL
  • Few at 15,000' AGL
  • Broken at 25,000' AGL
Temperature
28°C / 82°F
Dewpoint
C / 34°F
Humidity
17%
Altimeter
29.86" Hg
Pressure
1011.22 hPa
Previous

2 hours ago

KPHX 231751Z 00000KT 10SM FEW100 FEW150 BKN250 27/02 A2987 RMK AO2 SLP099 SHRA DSNT S T02670017 10267 20178 50004
Observed
Apr-23 @ 17:51 UTC
Visibility
10 SM
Flight Rules
VFR
Cloud Levels
  • Few at 10,000' AGL
  • Few at 15,000' AGL
  • Broken at 25,000' AGL
Temperature
27°C / 81°F
Dewpoint
C / 36°F
Humidity
20%
Altimeter
29.87" Hg
Pressure
1011.52 hPa